Noble Ace — 2ELO7 — position and weather

sailwx.info

Track history (hours):
 
Tides and Currents Weather Stations Pressure Air Temp Water Temp Dewpoint Dewpoint Depression Visibility Wind Speed Wind Dir Waves Ship Positions

Noble Ace

Last reported at 2017-Nov-16 07:35 UTC. Time now 2017-Nov-19 02:41 UTC.
Position N 49°09' W 007°37'.

Length 199 m; draft 9.6 m.

Type: Ship. MMSI: 235086166.

Date/timePositionNaut miles runAvg speedWind from/ knotsBaromVisibWave heightAir tempDewpointWater temp
2017-Nov-16 07:35N 49°09' W 007°37'2316.7
2017-Nov-16 06:14N 49°16' W 007°04'416.4
2017-Nov-16 06:00N 49°17' W 006°58'816.2
2017-Nov-16 05:30N 49°19' W 006°46'815.9
2017-Nov-16 04:59N 49°21' W 006°34'815.5
2017-Nov-16 04:29N 49°24' W 006°23'715.5
2017-Nov-16 04:00N 49°26' W 006°12'815.3
2017-Nov-16 03:30N 49°28' W 006°00'715.2
2017-Nov-16 03:00N 49°30' W 005°50'1217.6
2017-Nov-16 02:18N 49°34' W 005°31'3 9.8
2017-Nov-16 01:59N 49°34' W 005°27'711.6
2017-Nov-16 01:24N 49°37' W 005°17'512.1
2017-Nov-16 00:58N 49°38' W 005°09'713.5
2017-Nov-16 00:28N 49°41' W 004°59'816.3
2017-Nov-16 00:00N 49°45' W 004°49'816.6
2017-Nov-15 23:30N 49°49' W 004°38'817.0
2017-Nov-15 23:00N 49°53' W 004°27'917.2
2017-Nov-15 22:30N 49°57' W 004°15'917.6
2017-Nov-15 22:00N 50°00' W 004°02'917.6
2017-Nov-15 21:29N 50°05' W 003°50'817.6
2017-Nov-15 21:00N 50°09' W 003°38'917.1
2017-Nov-15 20:31N 50°12' W 003°26'815.7
2017-Nov-15 20:00N 50°20' W 003°25'4 8.5
2017-Nov-15 19:30N 50°24' W 003°24'4 8.7
2017-Nov-15 19:00N 50°25' W 003°17'714.1
2017-Nov-15 18:30N 50°25' W 003°06'815.7
2017-Nov-15 18:00N 50°25' W 002°54'815.5
2017-Nov-15 17:30N 50°25' W 002°42'1614.9
2017-Nov-15 16:26N 50°26' W 002°17'815.0
2017-Nov-15 15:56N 50°26' W 002°05'715.5
2017-Nov-15 15:30N 50°25' W 001°55'816.1
2017-Nov-15 15:00N 50°25' W 001°42'917.1
2017-Nov-15 14:28N 50°25' W 001°28'817.8
2017-Nov-15 14:00N 50°25' W 001°15'918.3
2017-Nov-15 13:30N 50°25' W 001°00'2218.9
2017-Nov-15 12:21N 50°27' W 000°26'618.5
2017-Nov-15 12:00N 50°28' W 000°16'918.2
2017-Nov-15 11:30N 50°30' W 000°03'917.9
2017-Nov-15 11:00N 50°33' E 000°11'917.6
2017-Nov-15 10:30N 50°35' E 000°24'817.0
2017-Nov-15 10:00N 50°38' E 000°37'816.7
2017-Nov-15 09:30N 50°43' E 000°47'816.1
2017-Nov-15 09:00N 50°49' E 000°57'815.9
2017-Nov-15 08:30N 50°54' E 001°07'816.0
2017-Nov-15 08:00N 50°59' E 001°17'816.6
2017-Nov-15 07:30N 51°04' E 001°27'918.1
2017-Nov-15 07:00N 51°10' E 001°38'918.6
2017-Nov-15 06:30N 51°16' E 001°49'918.9
2017-Nov-15 06:00N 51°24' E 001°58'815.8
2017-Nov-15 05:31N 51°23' E 002°10'816.5
2017-Nov-15 05:00N 51°22' E 002°23'1017.1
2017-Nov-15 04:27N 51°23' E 002°39'512.1
2017-Nov-15 04:00N 51°22' E 002°47'714.8
2017-Nov-15 03:30N 51°23' E 002°59'713.9
2017-Nov-15 03:00N 51°23' E 003°10'4 7.3
2017-Nov-15 02:30N 51°20' E 003°13'0 0.0
2017-Nov-15 02:00N 51°20' E 003°13'0 0.6
2017-Nov-15 01:30N 51°20' E 003°13'1 1.1
2017-Nov-15 01:00N 51°19' E 003°13'0 0.0
2017-Nov-15 00:30N 51°19' E 003°13'0 0.0
2017-Nov-15 00:00N 51°19' E 003°13'0 0.0
2017-Nov-14 23:30N 51°19' E 003°13'0 0.0
2017-Nov-14 23:00N 51°19' E 003°13'0 0.0
2017-Nov-14 22:30N 51°19' E 003°13'0 0.0
2017-Nov-14 22:00N 51°19' E 003°13'0 0.0
2017-Nov-14 21:30N 51°19' E 003°13'0 0.0
2017-Nov-14 21:00N 51°19' E 003°13'0 0.0
2017-Nov-14 20:30N 51°19' E 003°13'0 0.0
2017-Nov-14 20:00N 51°19' E 003°13'0 0.0
2017-Nov-14 19:30N 51°19' E 003°13'0 0.0
2017-Nov-14 19:00N 51°19' E 003°13'0 0.0
2017-Nov-14 18:30N 51°19' E 003°13'0 0.0
2017-Nov-14 18:00N 51°19' E 003°13'0 0.0
2017-Nov-14 17:30N 51°19' E 003°13'0 0.0
2017-Nov-14 17:00N 51°19' E 003°13'0 0.0
2017-Nov-14 16:30N 51°19' E 003°13'0 0.0
2017-Nov-14 16:00N 51°19' E 003°13'1 1.1
2017-Nov-14 15:31N 51°19' E 003°13'1 2.4
2017-Nov-14 15:00N 51°18' E 003°14'0 0.0
2017-Nov-14 14:30N 51°18' E 003°14'0 0.0
2017-Nov-14 14:00N 51°18' E 003°14'0 0.0
2017-Nov-14 13:30N 51°18' E 003°14'0 0.0
2017-Nov-14 13:00N 51°18' E 003°14'0 0.0
2017-Nov-14 12:30N 51°18' E 003°14'0 0.0
2017-Nov-14 12:00N 51°18' E 003°14'0 0.0
2017-Nov-14 11:30N 51°18' E 003°14'0 0.0
2017-Nov-14 10:57N 51°18' E 003°14'0 0.0
2017-Nov-14 10:30N 51°18' E 003°14'0 0.0
2017-Nov-14 10:00N 51°18' E 003°14'0 0.0
2017-Nov-14 09:30N 51°18' E 003°14'0 0.0
2017-Nov-14 09:00N 51°18' E 003°14'0 0.0
2017-Nov-14 08:30N 51°18' E 003°14'0 0.0
2017-Nov-14 08:00N 51°18' E 003°14'0 0.0
2017-Nov-14 07:30N 51°18' E 003°14'0 0.0
2017-Nov-14 07:00N 51°18' E 003°14'0 0.0
2017-Nov-14 06:30N 51°18' E 003°14'0 0.0
2017-Nov-14 06:00N 51°18' E 003°14'0 0.0
2017-Nov-14 05:30N 51°18' E 003°14'0 0.0
2017-Nov-14 05:00N 51°18' E 003°14'0 0.0
2017-Nov-14 04:30N 51°18' E 003°14'0 0.0
2017-Nov-14 04:00N 51°18' E 003°14'0 0.0
2017-Nov-14 03:30N 51°18' E 003°14'0 0.0
2017-Nov-14 03:00N 51°18' E 003°14'0 0.0
2017-Nov-14 02:30N 51°18' E 003°14'0 0.0
2017-Nov-14 02:00N 51°18' E 003°14'0 0.0
2017-Nov-14 01:30N 51°18' E 003°14'0 0.0
2017-Nov-14 01:00N 51°18' E 003°14'0 0.3
2017-Nov-14 00:31N 51°18' E 003°14'2 4.3
2017-Nov-14 00:00N 51°20' E 003°13'0 0.1
2017-Nov-13 23:30N 51°20' E 003°13'3 5.6
2017-Nov-13 23:00N 51°22' E 003°10'611.1
2017-Nov-13 22:30N 51°25' E 003°02'611.8
2017-Nov-13 22:00N 51°25' E 002°53'231 8.3
2017-Nov-12 18:17N 53°59' E 007°38'413.3
2017-Nov-12 18:00N 53°56' E 007°43'611.8
2017-Nov-12 17:30N 53°53' E 007°50'4 8.4
2017-Nov-12 17:00N 53°52' E 007°57'713.5
2017-Nov-12 16:30N 53°49' E 008°08'714.6
2017-Nov-12 16:00N 53°43' E 008°16'714.0
2017-Nov-12 15:30N 53°39' E 008°25'611.4
2017-Nov-12 15:01N 53°35' E 008°32'1 1.8
2017-Nov-12 14:30N 53°34' E 008°33'0 0.5
2017-Nov-12 14:01N 53°34' E 008°33'0 0.5
2017-Nov-12 13:29N 53°35' E 008°33'0 0.0
2017-Nov-12 12:59N 53°35' E 008°33'0 0.0
2017-Nov-12 12:29N 53°35' E 008°33'0 0.0
2017-Nov-12 11:59N 53°35' E 008°33'0 0.0
2017-Nov-12 11:29N 53°35' E 008°33'0 0.0
2017-Nov-12 10:59N 53°35' E 008°33'0 0.0
2017-Nov-12 10:29N 53°35' E 008°33'0 0.0
2017-Nov-12 09:59N 53°35' E 008°33'0 0.0
2017-Nov-12 09:29N 53°35' E 008°33'0 0.0
2017-Nov-12 08:59N 53°35' E 008°33'0 0.0
2017-Nov-12 08:29N 53°35' E 008°33'0 0.0
2017-Nov-12 07:59N 53°35' E 008°33'0 0.0
2017-Nov-12 07:29N 53°35' E 008°33'0 0.0
2017-Nov-12 06:59N 53°35' E 008°33'0 0.0
2017-Nov-12 06:29N 53°35' E 008°33'0 0.0
2017-Nov-12 05:59N 53°35' E 008°33'0 0.0
2017-Nov-12 05:29N 53°35' E 008°33'0 0.0
2017-Nov-12 04:59N 53°35' E 008°33'0 0.0
2017-Nov-12 04:29N 53°35' E 008°33'0 0.0
2017-Nov-12 03:59N 53°35' E 008°33'0 0.0
2017-Nov-12 03:29N 53°35' E 008°33'0 0.0
2017-Nov-12 02:59N 53°35' E 008°33'0 0.0
2017-Nov-12 02:29N 53°35' E 008°33'0 0.0
2017-Nov-12 01:59N 53°35' E 008°33'0 0.0
2017-Nov-12 01:29N 53°35' E 008°33'0 0.0
2017-Nov-12 00:59N 53°35' E 008°33'0 0.0
2017-Nov-12 00:29N 53°35' E 008°33'0 0.0
2017-Nov-11 23:59N 53°35' E 008°33'0 0.0
2017-Nov-11 23:26N 53°35' E 008°33'0 0.0
2017-Nov-11 22:59N 53°35' E 008°33'0 0.0
2017-Nov-11 22:29N 53°35' E 008°33'0 0.0
2017-Nov-11 21:59N 53°35' E 008°33'0 0.0
2017-Nov-11 21:29N 53°35' E 008°33'0 0.0
2017-Nov-11 20:59N 53°35' E 008°33'0 0.0
2017-Nov-11 20:29N 53°35' E 008°33'0 0.0
2017-Nov-11 19:59N 53°35' E 008°33'0 0.0
2017-Nov-11 19:29N 53°35' E 008°33'0 0.0
2017-Nov-11 18:59N 53°35' E 008°33'0 0.0
2017-Nov-11 18:29N 53°35' E 008°33'0 0.0
2017-Nov-11 17:59N 53°35' E 008°33'0 0.0
2017-Nov-11 17:29N 53°35' E 008°33'0 0.0
2017-Nov-11 16:59N 53°35' E 008°33'0 0.0
2017-Nov-11 16:29N 53°35' E 008°33'0 0.0
2017-Nov-11 15:59N 53°35' E 008°33'0 0.0
2017-Nov-11 15:29N 53°35' E 008°33'0 0.0
2017-Nov-11 14:59N 53°35' E 008°33'0 0.0
2017-Nov-11 14:29N 53°35' E 008°33'0 0.0
2017-Nov-11 13:59N 53°35' E 008°33'0 0.0
2017-Nov-11 13:29N 53°35' E 008°33'0 0.0
2017-Nov-11 12:59N 53°35' E 008°33'0 0.0
2017-Nov-11 12:29N 53°35' E 008°33'0 0.0
2017-Nov-11 11:59N 53°35' E 008°33'0 0.0
2017-Nov-11 11:29N 53°35' E 008°33'0 0.0
2017-Nov-11 10:59N 53°35' E 008°33'0 0.0
2017-Nov-11 10:29N 53°35' E 008°33'0 0.0
2017-Nov-11 09:59N 53°35' E 008°33'0 0.0
2017-Nov-11 09:29N 53°35' E 008°33'0 0.0
2017-Nov-11 08:59N 53°35' E 008°33'0 0.0
2017-Nov-11 08:29N 53°35' E 008°33'0 0.0
2017-Nov-11 07:59N 53°35' E 008°33'0 0.0
2017-Nov-11 07:29N 53°35' E 008°33'0 0.0
2017-Nov-11 06:59N 53°35' E 008°33'0 0.0
2017-Nov-11 06:29N 53°35' E 008°33'0 0.0
2017-Nov-11 05:59N 53°35' E 008°33'0 0.0
2017-Nov-11 05:29N 53°35' E 008°33'0 0.0
2017-Nov-11 05:00N 53°35' E 008°33'0 0.0
2017-Nov-11 04:30N 53°35' E 008°33'0 0.0
2017-Nov-11 04:00N 53°35' E 008°33'0 0.0
2017-Nov-11 03:30N 53°35' E 008°33'0 0.0
2017-Nov-11 03:01N 53°35' E 008°33'0 0.0
2017-Nov-11 02:30N 53°35' E 008°33'0 0.0
2017-Nov-11 02:00N 53°35' E 008°33'0 0.0
2017-Nov-11 01:30N 53°35' E 008°33'0 0.0
2017-Nov-11 01:00N 53°35' E 008°33'0 0.0
2017-Nov-11 00:31N 53°35' E 008°33'0 0.0
2017-Nov-11 00:00N 53°35' E 008°33'0 0.9
2017-Nov-10 23:30N 53°34' E 008°33'0 0.3
2017-Nov-10 23:00N 53°34' E 008°33'1 1.5
2017-Nov-10 22:30N 53°35' E 008°32'4 7.3
2017-Nov-10 22:01N 53°37' E 008°28'5 9.3
2017-Nov-10 21:31N 53°40' E 008°22'5 9.2
2017-Nov-10 21:00N 53°43' E 008°16'5 9.3
2017-Nov-10 20:30N 53°46' E 008°10'4 8.1
2017-Nov-10 20:00N 53°49' E 008°06'5 9.1
2017-Nov-10 19:30N 53°51' E 007°59'4 7.6
2017-Nov-10 19:00N 53°52' E 007°52'4 7.5
2017-Nov-10 18:30N 53°53' E 007°46'5 9.1
2017-Nov-10 18:00N 53°54' E 007°38'5 9.5
2017-Nov-10 17:30N 53°55' E 007°30'8713.1
2017-Nov-10 10:52N 53°30' E 005°10'913.6
2017-Nov-10 10:13N 53°27' E 004°56'313.7
2017-Nov-10 10:00N 53°26' E 004°51'1914.1
2017-Nov-10 08:39N 53°11' E 004°31'319.8
2017-Nov-10 08:30N 53°09' E 004°29'1019.7
2017-Nov-10 08:00N 52°60' E 004°21'1019.8
2017-Nov-10 07:30N 52°51' E 004°14'1019.8
2017-Nov-10 07:00N 52°43' E 004°05'1019.9
2017-Nov-10 06:30N 52°35' E 003°53'1019.8
2017-Nov-10 06:00N 52°28' E 003°42'1019.9
2017-Nov-10 05:30N 52°21' E 003°30'5519.5
2017-Nov-10 02:41N 51°40' E 002°32'318.5
2017-Nov-10 02:31N 51°38' E 002°28'918.2
2017-Nov-10 02:00N 51°31' E 002°18'817.0
2017-Nov-10 01:30N 51°24' E 002°10'917.1
2017-Nov-10 01:01N 51°16' E 002°06'816.2
2017-Nov-10 00:30N 51°10' E 001°56'816.1
2017-Nov-10 00:01N 51°06' E 001°45'815.9
2017-Nov-09 23:30N 51°00' E 001°38'815.6
2017-Nov-09 23:00N 50°54' E 001°30'815.6
2017-Nov-09 22:30N 50°46' E 001°26'916.6
2017-Nov-09 21:59N 50°40' E 001°17'816.9
2017-Nov-09 21:30N 50°34' E 001°07'917.4
2017-Nov-09 21:00N 50°29' E 000°57'917.5
2017-Nov-09 20:30N 50°26' E 000°44'1117.6
2017-Nov-09 19:52N 50°23' E 000°27'617.5
2017-Nov-09 19:30N 50°22' E 000°17'917.4
2017-Nov-09 19:00N 50°21' E 000°03'917.4
2017-Nov-09 18:30N 50°20' W 000°10'917.3
2017-Nov-09 18:00N 50°19' W 000°24'1416.9
2017-Nov-09 17:10N 50°19' W 000°46'817.1
2017-Nov-09 16:41N 50°20' W 000°59'316.7
2017-Nov-09 16:29N 50°20' W 001°04'817.0
2017-Nov-09 16:00N 50°20' W 001°17'916.5
2017-Nov-09 15:27N 50°21' W 001°31'716.8
2017-Nov-09 15:00N 50°22' W 001°42'917.2
2017-Nov-09 14:30N 50°23' W 001°56'1218.1
2017-Nov-09 13:52N 50°23' W 002°14'718.8
2017-Nov-09 13:30N 50°23' W 002°25'918.8
2017-Nov-09 13:00N 50°24' W 002°39'918.6
2017-Nov-09 12:30N 50°24' W 002°54'918.2
2017-Nov-09 12:00N 50°24' W 003°08'816.9
2017-Nov-09 11:30N 50°23' W 003°21'4 7.6
2017-Nov-09 11:00N 50°21' W 003°26'510.0
2017-Nov-09 10:30N 50°16' W 003°26'611.4
2017-Nov-09 10:00N 50°10' W 003°25'611.2
2017-Nov-09 09:30N 50°05' W 003°24'611.0
2017-Nov-09 09:00N 49°59' W 003°26'611.5
2017-Nov-09 08:30N 49°54' W 003°29'611.3
2017-Nov-09 08:00N 49°49' W 003°34'612.6
2017-Nov-09 07:30N 49°43' W 003°37'714.1
2017-Nov-09 07:00N 49°36' W 003°39'1019.3
2017-Nov-09 06:30N 49°30' W 003°51'1019.5
2017-Nov-09 05:59N 49°25' W 004°04'1019.5
2017-Nov-09 05:30N 49°20' W 004°16'3719.1
2017-Nov-09 03:33N 49°00' W 005°05'118.8
2017-Nov-09 03:29N 48°60' W 005°06'1018.4
2017-Nov-09 02:57N 48°54' W 005°19'817.9
2017-Nov-09 02:30N 48°50' W 005°29'917.0
2017-Nov-09 02:00N 48°44' W 005°38'917.7
2017-Nov-09 01:29N 48°36' W 005°44'917.3
2017-Nov-09 00:58N 48°27' W 005°50'1016.9
2017-Nov-09 00:21N 48°18' W 005°58'614.3
2017-Nov-08 23:55N 48°13' W 006°03'611.6
2017-Nov-08 23:24N 48°08' W 006°07'5116.2
2017-Nov-08 20:16N 47°23' W 006°42'52411.8
2017-Nov-06 23:56N 39°07' W 010°32'817.6
2017-Nov-06 23:30N 38°60' W 010°35'1717.1
2017-Nov-06 22:30N 38°44' W 010°42'1317.2
2017-Nov-06 21:44N 38°31' W 010°47'417.3
2017-Nov-06 21:30N 38°27' W 010°49'917.5
2017-Nov-06 21:00N 38°19' W 010°52'  
Track history (hours):
 
Tides and Currents Weather Stations Pressure Air Temp Water Temp Dewpoint Dewpoint Depression Visibility Wind Speed Wind Dir Waves Ship Positions

Noble Ace

Last reported at 2017-Nov-16 07:35 UTC. Time now 2017-Nov-19 02:41 UTC.
Position N 49°09' W 007°37'.

Length 199 m; draft 9.6 m.

Type: Ship. MMSI: 235086166.

Date/timePositionNaut miles runAvg speedWind from/ knotsBaromVisibWave heightAir tempDewpointWater temp
2017-Nov-16 07:35N 49°09' W 007°37'2316.7
2017-Nov-16 06:14N 49°16' W 007°04'416.4
2017-Nov-16 06:00N 49°17' W 006°58'816.2
2017-Nov-16 05:30N 49°19' W 006°46'815.9
2017-Nov-16 04:59N 49°21' W 006°34'815.5
2017-Nov-16 04:29N 49°24' W 006°23'715.5
2017-Nov-16 04:00N 49°26' W 006°12'815.3
2017-Nov-16 03:30N 49°28' W 006°00'715.2
2017-Nov-16 03:00N 49°30' W 005°50'1217.6
2017-Nov-16 02:18N 49°34' W 005°31'3 9.8
2017-Nov-16 01:59N 49°34' W 005°27'711.6
2017-Nov-16 01:24N 49°37' W 005°17'512.1
2017-Nov-16 00:58N 49°38' W 005°09'713.5
2017-Nov-16 00:28N 49°41' W 004°59'816.3
2017-Nov-16 00:00N 49°45' W 004°49'816.6
2017-Nov-15 23:30N 49°49' W 004°38'817.0
2017-Nov-15 23:00N 49°53' W 004°27'917.2
2017-Nov-15 22:30N 49°57' W 004°15'917.6
2017-Nov-15 22:00N 50°00' W 004°02'917.6
2017-Nov-15 21:29N 50°05' W 003°50'817.6
2017-Nov-15 21:00N 50°09' W 003°38'917.1
2017-Nov-15 20:31N 50°12' W 003°26'815.7
2017-Nov-15 20:00N 50°20' W 003°25'4 8.5
2017-Nov-15 19:30N 50°24' W 003°24'4 8.7
2017-Nov-15 19:00N 50°25' W 003°17'714.1
2017-Nov-15 18:30N 50°25' W 003°06'815.7
2017-Nov-15 18:00N 50°25' W 002°54'815.5
2017-Nov-15 17:30N 50°25' W 002°42'1614.9
2017-Nov-15 16:26N 50°26' W 002°17'815.0
2017-Nov-15 15:56N 50°26' W 002°05'715.5
2017-Nov-15 15:30N 50°25' W 001°55'816.1
2017-Nov-15 15:00N 50°25' W 001°42'917.1
2017-Nov-15 14:28N 50°25' W 001°28'817.8
2017-Nov-15 14:00N 50°25' W 001°15'918.3
2017-Nov-15 13:30N 50°25' W 001°00'2218.9
2017-Nov-15 12:21N 50°27' W 000°26'618.5
2017-Nov-15 12:00N 50°28' W 000°16'918.2
2017-Nov-15 11:30N 50°30' W 000°03'917.9
2017-Nov-15 11:00N 50°33' E 000°11'917.6
2017-Nov-15 10:30N 50°35' E 000°24'817.0
2017-Nov-15 10:00N 50°38' E 000°37'816.7
2017-Nov-15 09:30N 50°43' E 000°47'816.1
2017-Nov-15 09:00N 50°49' E 000°57'815.9
2017-Nov-15 08:30N 50°54' E 001°07'816.0
2017-Nov-15 08:00N 50°59' E 001°17'816.6
2017-Nov-15 07:30N 51°04' E 001°27'918.1
2017-Nov-15 07:00N 51°10' E 001°38'918.6
2017-Nov-15 06:30N 51°16' E 001°49'918.9
2017-Nov-15 06:00N 51°24' E 001°58'815.8
2017-Nov-15 05:31N 51°23' E 002°10'816.5
2017-Nov-15 05:00N 51°22' E 002°23'1017.1
2017-Nov-15 04:27N 51°23' E 002°39'512.1
2017-Nov-15 04:00N 51°22' E 002°47'714.8
2017-Nov-15 03:30N 51°23' E 002°59'713.9
2017-Nov-15 03:00N 51°23' E 003°10'4 7.3
2017-Nov-15 02:30N 51°20' E 003°13'0 0.0
2017-Nov-15 02:00N 51°20' E 003°13'0 0.6
2017-Nov-15 01:30N 51°20' E 003°13'1 1.1
2017-Nov-15 01:00N 51°19' E 003°13'0 0.0
2017-Nov-15 00:30N 51°19' E 003°13'0 0.0
2017-Nov-15 00:00N 51°19' E 003°13'0 0.0
2017-Nov-14 23:30N 51°19' E 003°13'0 0.0
2017-Nov-14 23:00N 51°19' E 003°13'0 0.0
2017-Nov-14 22:30N 51°19' E 003°13'0 0.0
2017-Nov-14 22:00N 51°19' E 003°13'0 0.0
2017-Nov-14 21:30N 51°19' E 003°13'0 0.0
2017-Nov-14 21:00N 51°19' E 003°13'0 0.0
2017-Nov-14 20:30N 51°19' E 003°13'0 0.0
2017-Nov-14 20:00N 51°19' E 003°13'0 0.0
2017-Nov-14 19:30N 51°19' E 003°13'0 0.0
2017-Nov-14 19:00N 51°19' E 003°13'0 0.0
2017-Nov-14 18:30N 51°19' E 003°13'0 0.0
2017-Nov-14 18:00N 51°19' E 003°13'0 0.0
2017-Nov-14 17:30N 51°19' E 003°13'0 0.0
2017-Nov-14 17:00N 51°19' E 003°13'0 0.0
2017-Nov-14 16:30N 51°19' E 003°13'0 0.0
2017-Nov-14 16:00N 51°19' E 003°13'1 1.1
2017-Nov-14 15:31N 51°19' E 003°13'1 2.4
2017-Nov-14 15:00N 51°18' E 003°14'0 0.0
2017-Nov-14 14:30N 51°18' E 003°14'0 0.0
2017-Nov-14 14:00N 51°18' E 003°14'0 0.0
2017-Nov-14 13:30N 51°18' E 003°14'0 0.0
2017-Nov-14 13:00N 51°18' E 003°14'0 0.0
2017-Nov-14 12:30N 51°18' E 003°14'0 0.0
2017-Nov-14 12:00N 51°18' E 003°14'0 0.0
2017-Nov-14 11:30N 51°18' E 003°14'0 0.0
2017-Nov-14 10:57N 51°18' E 003°14'0 0.0
2017-Nov-14 10:30N 51°18' E 003°14'0 0.0
2017-Nov-14 10:00N 51°18' E 003°14'0 0.0
2017-Nov-14 09:30N 51°18' E 003°14'0 0.0
2017-Nov-14 09:00N 51°18' E 003°14'0 0.0
2017-Nov-14 08:30N 51°18' E 003°14'0 0.0
2017-Nov-14 08:00N 51°18' E 003°14'0 0.0
2017-Nov-14 07:30N 51°18' E 003°14'0 0.0
2017-Nov-14 07:00N 51°18' E 003°14'0 0.0
2017-Nov-14 06:30N 51°18' E 003°14'0 0.0
2017-Nov-14 06:00N 51°18' E 003°14'0 0.0
2017-Nov-14 05:30N 51°18' E 003°14'0 0.0
2017-Nov-14 05:00N 51°18' E 003°14'0 0.0
2017-Nov-14 04:30N 51°18' E 003°14'0 0.0
2017-Nov-14 04:00N 51°18' E 003°14'0 0.0
2017-Nov-14 03:30N 51°18' E 003°14'0 0.0
2017-Nov-14 03:00N 51°18' E 003°14'0 0.0
2017-Nov-14 02:30N 51°18' E 003°14'0 0.0
2017-Nov-14 02:00N 51°18' E 003°14'0 0.0
2017-Nov-14 01:30N 51°18' E 003°14'0 0.0
2017-Nov-14 01:00N 51°18' E 003°14'0 0.3
2017-Nov-14 00:31N 51°18' E 003°14'2 4.3
2017-Nov-14 00:00N 51°20' E 003°13'0 0.1
2017-Nov-13 23:30N 51°20' E 003°13'3 5.6
2017-Nov-13 23:00N 51°22' E 003°10'611.1
2017-Nov-13 22:30N 51°25' E 003°02'611.8
2017-Nov-13 22:00N 51°25' E 002°53'231 8.3
2017-Nov-12 18:17N 53°59' E 007°38'413.3
2017-Nov-12 18:00N 53°56' E 007°43'611.8
2017-Nov-12 17:30N 53°53' E 007°50'4 8.4
2017-Nov-12 17:00N 53°52' E 007°57'713.5
2017-Nov-12 16:30N 53°49' E 008°08'714.6
2017-Nov-12 16:00N 53°43' E 008°16'714.0
2017-Nov-12 15:30N 53°39' E 008°25'611.4
2017-Nov-12 15:01N 53°35' E 008°32'1 1.8
2017-Nov-12 14:30N 53°34' E 008°33'0 0.5
2017-Nov-12 14:01N 53°34' E 008°33'0 0.5
2017-Nov-12 13:29N 53°35' E 008°33'0 0.0
2017-Nov-12 12:59N 53°35' E 008°33'0 0.0
2017-Nov-12 12:29N 53°35' E 008°33'0 0.0
2017-Nov-12 11:59N 53°35' E 008°33'0 0.0
2017-Nov-12 11:29N 53°35' E 008°33'0 0.0
2017-Nov-12 10:59N 53°35' E 008°33'0 0.0
2017-Nov-12 10:29N 53°35' E 008°33'0 0.0
2017-Nov-12 09:59N 53°35' E 008°33'0 0.0
2017-Nov-12 09:29N 53°35' E 008°33'0 0.0
2017-Nov-12 08:59N 53°35' E 008°33'0 0.0
2017-Nov-12 08:29N 53°35' E 008°33'0 0.0
2017-Nov-12 07:59N 53°35' E 008°33'0 0.0
2017-Nov-12 07:29N 53°35' E 008°33'0 0.0
2017-Nov-12 06:59N 53°35' E 008°33'0 0.0
2017-Nov-12 06:29N 53°35' E 008°33'0 0.0
2017-Nov-12 05:59N 53°35' E 008°33'0 0.0
2017-Nov-12 05:29N 53°35' E 008°33'0 0.0
2017-Nov-12 04:59N 53°35' E 008°33'0 0.0
2017-Nov-12 04:29N 53°35' E 008°33'0 0.0
2017-Nov-12 03:59N 53°35' E 008°33'0 0.0
2017-Nov-12 03:29N 53°35' E 008°33'0 0.0
2017-Nov-12 02:59N 53°35' E 008°33'0 0.0
2017-Nov-12 02:29N 53°35' E 008°33'0 0.0
2017-Nov-12 01:59N 53°35' E 008°33'0 0.0
2017-Nov-12 01:29N 53°35' E 008°33'0 0.0
2017-Nov-12 00:59N 53°35' E 008°33'0 0.0
2017-Nov-12 00:29N 53°35' E 008°33'0 0.0
2017-Nov-11 23:59N 53°35' E 008°33'0 0.0
2017-Nov-11 23:26N 53°35' E 008°33'0 0.0
2017-Nov-11 22:59N 53°35' E 008°33'0 0.0
2017-Nov-11 22:29N 53°35' E 008°33'0 0.0
2017-Nov-11 21:59N 53°35' E 008°33'0 0.0
2017-Nov-11 21:29N 53°35' E 008°33'0 0.0
2017-Nov-11 20:59N 53°35' E 008°33'0 0.0
2017-Nov-11 20:29N 53°35' E 008°33'0 0.0
2017-Nov-11 19:59N 53°35' E 008°33'0 0.0
2017-Nov-11 19:29N 53°35' E 008°33'0 0.0
2017-Nov-11 18:59N 53°35' E 008°33'0 0.0
2017-Nov-11 18:29N 53°35' E 008°33'0 0.0
2017-Nov-11 17:59N 53°35' E 008°33'0 0.0
2017-Nov-11 17:29N 53°35' E 008°33'0 0.0
2017-Nov-11 16:59N 53°35' E 008°33'0 0.0
2017-Nov-11 16:29N 53°35' E 008°33'0 0.0
2017-Nov-11 15:59N 53°35' E 008°33'0 0.0
2017-Nov-11 15:29N 53°35' E 008°33'0 0.0
2017-Nov-11 14:59N 53°35' E 008°33'0 0.0
2017-Nov-11 14:29N 53°35' E 008°33'0 0.0
2017-Nov-11 13:59N 53°35' E 008°33'0 0.0
2017-Nov-11 13:29N 53°35' E 008°33'0 0.0
2017-Nov-11 12:59N 53°35' E 008°33'0 0.0
2017-Nov-11 12:29N 53°35' E 008°33'0 0.0
2017-Nov-11 11:59N 53°35' E 008°33'0 0.0
2017-Nov-11 11:29N 53°35' E 008°33'0 0.0
2017-Nov-11 10:59N 53°35' E 008°33'0 0.0
2017-Nov-11 10:29N 53°35' E 008°33'0 0.0
2017-Nov-11 09:59N 53°35' E 008°33'0 0.0
2017-Nov-11 09:29N 53°35' E 008°33'0 0.0
2017-Nov-11 08:59N 53°35' E 008°33'0 0.0
2017-Nov-11 08:29N 53°35' E 008°33'0 0.0
2017-Nov-11 07:59N 53°35' E 008°33'0 0.0
2017-Nov-11 07:29N 53°35' E 008°33'0 0.0
2017-Nov-11 06:59N 53°35' E 008°33'0 0.0
2017-Nov-11 06:29N 53°35' E 008°33'0 0.0
2017-Nov-11 05:59N 53°35' E 008°33'0 0.0
2017-Nov-11 05:29N 53°35' E 008°33'0 0.0
2017-Nov-11 05:00N 53°35' E 008°33'0 0.0
2017-Nov-11 04:30N 53°35' E 008°33'0 0.0
2017-Nov-11 04:00N 53°35' E 008°33'0 0.0
2017-Nov-11 03:30N 53°35' E 008°33'0 0.0
2017-Nov-11 03:01N 53°35' E 008°33'0 0.0
2017-Nov-11 02:30N 53°35' E 008°33'0 0.0
2017-Nov-11 02:00N 53°35' E 008°33'0 0.0
2017-Nov-11 01:30N 53°35' E 008°33'0 0.0
2017-Nov-11 01:00N 53°35' E 008°33'0 0.0
2017-Nov-11 00:31N 53°35' E 008°33'0 0.0
2017-Nov-11 00:00N 53°35' E 008°33'0 0.9
2017-Nov-10 23:30N 53°34' E 008°33'0 0.3
2017-Nov-10 23:00N 53°34' E 008°33'1 1.5
2017-Nov-10 22:30N 53°35' E 008°32'4 7.3
2017-Nov-10 22:01N 53°37' E 008°28'5 9.3
2017-Nov-10 21:31N 53°40' E 008°22'5 9.2
2017-Nov-10 21:00N 53°43' E 008°16'5 9.3
2017-Nov-10 20:30N 53°46' E 008°10'4 8.1
2017-Nov-10 20:00N 53°49' E 008°06'5 9.1
2017-Nov-10 19:30N 53°51' E 007°59'4 7.6
2017-Nov-10 19:00N 53°52' E 007°52'4 7.5
2017-Nov-10 18:30N 53°53' E 007°46'5 9.1
2017-Nov-10 18:00N 53°54' E 007°38'5 9.5
2017-Nov-10 17:30N 53°55' E 007°30'8713.1
2017-Nov-10 10:52N 53°30' E 005°10'913.6
2017-Nov-10 10:13N 53°27' E 004°56'313.7
2017-Nov-10 10:00N 53°26' E 004°51'1914.1
2017-Nov-10 08:39N 53°11' E 004°31'319.8
2017-Nov-10 08:30N 53°09' E 004°29'1019.7
2017-Nov-10 08:00N 52°60' E 004°21'1019.8
2017-Nov-10 07:30N 52°51' E 004°14'1019.8
2017-Nov-10 07:00N 52°43' E 004°05'1019.9
2017-Nov-10 06:30N 52°35' E 003°53'1019.8
2017-Nov-10 06:00N 52°28' E 003°42'1019.9
2017-Nov-10 05:30N 52°21' E 003°30'5519.5
2017-Nov-10 02:41N 51°40' E 002°32'318.5
2017-Nov-10 02:31N 51°38' E 002°28'918.2
2017-Nov-10 02:00N 51°31' E 002°18'817.0
2017-Nov-10 01:30N 51°24' E 002°10'917.1
2017-Nov-10 01:01N 51°16' E 002°06'816.2
2017-Nov-10 00:30N 51°10' E 001°56'816.1
2017-Nov-10 00:01N 51°06' E 001°45'815.9
2017-Nov-09 23:30N 51°00' E 001°38'815.6
2017-Nov-09 23:00N 50°54' E 001°30'815.6
2017-Nov-09 22:30N 50°46' E 001°26'916.6
2017-Nov-09 21:59N 50°40' E 001°17'816.9
2017-Nov-09 21:30N 50°34' E 001°07'917.4
2017-Nov-09 21:00N 50°29' E 000°57'917.5
2017-Nov-09 20:30N 50°26' E 000°44'1117.6
2017-Nov-09 19:52N 50°23' E 000°27'617.5
2017-Nov-09 19:30N 50°22' E 000°17'917.4
2017-Nov-09 19:00N 50°21' E 000°03'917.4
2017-Nov-09 18:30N 50°20' W 000°10'917.3
2017-Nov-09 18:00N 50°19' W 000°24'1416.9
2017-Nov-09 17:10N 50°19' W 000°46'817.1
2017-Nov-09 16:41N 50°20' W 000°59'316.7
2017-Nov-09 16:29N 50°20' W 001°04'817.0
2017-Nov-09 16:00N 50°20' W 001°17'916.5
2017-Nov-09 15:27N 50°21' W 001°31'716.8
2017-Nov-09 15:00N 50°22' W 001°42'917.2
2017-Nov-09 14:30N 50°23' W 001°56'1218.1
2017-Nov-09 13:52N 50°23' W 002°14'718.8
2017-Nov-09 13:30N 50°23' W 002°25'918.8
2017-Nov-09 13:00N 50°24' W 002°39'918.6
2017-Nov-09 12:30N 50°24' W 002°54'918.2
2017-Nov-09 12:00N 50°24' W 003°08'816.9
2017-Nov-09 11:30N 50°23' W 003°21'4 7.6
2017-Nov-09 11:00N 50°21' W 003°26'510.0
2017-Nov-09 10:30N 50°16' W 003°26'611.4
2017-Nov-09 10:00N 50°10' W 003°25'611.2
2017-Nov-09 09:30N 50°05' W 003°24'611.0
2017-Nov-09 09:00N 49°59' W 003°26'611.5
2017-Nov-09 08:30N 49°54' W 003°29'611.3
2017-Nov-09 08:00N 49°49' W 003°34'612.6
2017-Nov-09 07:30N 49°43' W 003°37'714.1
2017-Nov-09 07:00N 49°36' W 003°39'1019.3
2017-Nov-09 06:30N 49°30' W 003°51'1019.5
2017-Nov-09 05:59N 49°25' W 004°04'1019.5
2017-Nov-09 05:30N 49°20' W 004°16'3719.1
2017-Nov-09 03:33N 49°00' W 005°05'118.8
2017-Nov-09 03:29N 48°60' W 005°06'1018.4
2017-Nov-09 02:57N 48°54' W 005°19'817.9
2017-Nov-09 02:30N 48°50' W 005°29'917.0
2017-Nov-09 02:00N 48°44' W 005°38'917.7
2017-Nov-09 01:29N 48°36' W 005°44'917.3
2017-Nov-09 00:58N 48°27' W 005°50'1016.9
2017-Nov-09 00:21N 48°18' W 005°58'614.3
2017-Nov-08 23:55N 48°13' W 006°03'611.6
2017-Nov-08 23:24N 48°08' W 006°07'5116.2
2017-Nov-08 20:16N 47°23' W 006°42'52411.8
2017-Nov-06 23:56N 39°07' W 010°32'817.6
2017-Nov-06 23:30N 38°60' W 010°35'1717.1
2017-Nov-06 22:30N 38°44' W 010°42'1317.2
2017-Nov-06 21:44N 38°31' W 010°47'417.3
2017-Nov-06 21:30N 38°27' W 010°49'917.5
2017-Nov-06 21:00N 38°19' W 010°52'  

Dump ship's entire track history